Time;durP1;ratioP1;P1;durP2;ratioP2;P2;SDS_P1;SDS_P2;PMS_P1;PMS_P2;Temp;Humidity;BMP_temperature;BMP_pressure;BME280_temperature;BME280_humidity;BME280_pressure;Samples;Min_cycle;Max_cycle;Signal;HPM_P1;HPM_P2
2023/07/18 00:00:02;;;;;;;0.05;0.05;;;;;;;;;;5086787;28;20445;-72
2023/07/18 00:02:29;;;;;;;0.05;0.05;;;;;;;;;;5092016;28;20329;-72
2023/07/18 00:04:56;;;;;;;0.10;0.10;;;;;;;;;;5086800;28;20266;-72
2023/07/18 00:07:23;;;;;;;0.05;0.05;;;;;;;;;;5092034;28;20340;-72
2023/07/18 00:09:50;;;;;;;0.10;0.10;;;;;;;;;;5086722;28;20203;-72
2023/07/18 00:12:16;;;;;;;0.03;0.03;;;;;;;;;;5092019;28;20570;-72
2023/07/18 00:14:43;;;;;;;0.10;0.10;;;;;;;;;;5086547;28;20203;-72
2023/07/18 00:17:10;;;;;;;0.10;0.10;;;;;;;;;;5091729;28;20241;-72
2023/07/18 00:19:37;;;;;;;0.00;0.00;;;;;;;;;;5085750;28;20278;-72
2023/07/18 00:22:04;;;;;;;0.10;0.10;;;;;;;;;;5090452;28;20246;-73
2023/07/18 00:24:30;;;;;;;0.10;0.10;;;;;;;;;;5086900;28;20276;-73
2023/07/18 00:26:57;;;;;;;0.10;0.10;;;;;;;;;;5090015;28;20272;-72
2023/07/18 00:29:23;;;;;;;0.10;0.10;;;;;;;;;;5087597;28;20211;-72
2023/07/18 00:31:50;;;;;;;0.10;0.10;;;;;;;;;;5089036;28;20241;-72
2023/07/18 00:34:18;;;;;;;0.10;0.10;;;;;;;;;;5088268;28;20471;-72
2023/07/18 00:36:45;;;;;;;0.00;0.00;;;;;;;;;;5088243;28;20453;-72
2023/07/18 00:39:12;;;;;;;0.10;0.10;;;;;;;;;;5088761;28;20206;-73
2023/07/18 00:41:39;;;;;;;0.05;0.05;;;;;;;;;;5087498;28;20245;-72
2023/07/18 00:44:05;;;;;;;0.10;0.10;;;;;;;;;;5089657;28;20204;-72
2023/07/18 00:46:32;;;;;;;0.00;0.00;;;;;;;;;;5086526;28;20241;-72
2023/07/18 00:48:58;;;;;;;0.10;0.10;;;;;;;;;;5090643;28;20371;-72
2023/07/18 00:51:26;;;;;;;0.03;0.03;;;;;;;;;;5085288;28;20308;-72
2023/07/18 00:53:53;;;;;;;0.03;0.03;;;;;;;;;;5091141;28;20210;-72
2023/07/18 00:56:19;;;;;;;0.10;0.10;;;;;;;;;;5084685;28;20241;-72
2023/07/18 00:58:45;;;;;;;0.00;0.00;;;;;;;;;;5092072;28;20450;-72
2023/07/18 01:01:12;;;;;;;0.10;0.10;;;;;;;;;;5083798;28;20255;-72
2023/07/18 01:03:38;;;;;;;0.10;0.10;;;;;;;;;;5092658;28;20272;-72
2023/07/18 01:06:05;;;;;;;0.05;0.05;;;;;;;;;;5082757;28;20287;-72
2023/07/18 01:08:32;;;;;;;0.10;0.10;;;;;;;;;;5093664;28;20319;-73
2023/07/18 01:10:59;;;;;;;0.10;0.10;;;;;;;;;;5081848;28;20249;-73
2023/07/18 01:13:25;;;;;;;0.10;0.10;;;;;;;;;;5094463;28;20204;-72
2023/07/18 01:15:51;;;;;;;0.00;0.00;;;;;;;;;;5080680;28;20298;-72
2023/07/18 01:18:18;;;;;;;0.10;0.10;;;;;;;;;;5095059;28;20268;-72
2023/07/18 01:20:45;;;;;;;0.10;0.10;;;;;;;;;;5079865;28;20306;-73
2023/07/18 01:23:13;;;;;;;0.10;0.10;;;;;;;;;;5096052;28;20226;-72
2023/07/18 01:25:41;;;;;;;0.03;0.03;;;;;;;;;;5079030;28;20301;-72
2023/07/18 01:28:08;;;;;;;0.10;0.10;;;;;;;;;;5096530;28;20196;-72
2023/07/18 01:30:34;;;;;;;0.10;0.10;;;;;;;;;;5078321;28;20604;-72
2023/07/18 01:33:01;;;;;;;0.05;0.05;;;;;;;;;;5097071;28;20193;-72
2023/07/18 01:35:28;;;;;;;0.10;0.10;;;;;;;;;;5077303;28;20298;-73
2023/07/18 01:37:55;;;;;;;0.10;0.10;;;;;;;;;;5097664;28;20226;-72
2023/07/18 01:40:23;;;;;;;0.10;0.10;;;;;;;;;;5077151;28;20204;-72
2023/07/18 01:42:51;;;;;;;0.73;0.73;;;;;;;;;;5098509;28;20366;-70
2023/07/18 01:45:18;;;;;;;0.10;0.10;;;;;;;;;;5075969;28;20242;-71
2023/07/18 01:47:44;;;;;;;0.10;0.10;;;;;;;;;;5099172;28;20415;-71
2023/07/18 01:50:10;;;;;;;0.10;0.10;;;;;;;;;;5074755;28;20211;-72
2023/07/18 01:52:38;;;;;;;0.10;0.10;;;;;;;;;;5099600;28;20274;-71
2023/07/18 01:55:05;;;;;;;0.10;0.10;;;;;;;;;;5084737;28;20286;-71
2023/07/18 01:57:42;;;;;;;0.10;0.10;;;;;;;;;;5073053;28;20211;-71
2023/07/18 02:00:11;;;;;;;0.10;0.10;;;;;;;;;;5074906;28;20298;-71
2023/07/18 02:02:37;;;;;;;0.10;0.10;;;;;;;;;;5099350;28;20221;-71
2023/07/18 02:05:04;;;;;;;0.10;0.10;;;;;;;;;;5084529;28;20423;-71
2023/07/18 02:07:30;;;;;;;0.10;0.10;;;;;;;;;;5089638;28;20481;-71
2023/07/18 02:09:57;;;;;;;0.10;0.10;;;;;;;;;;5084523;28;20234;-72
2023/07/18 02:12:23;;;;;;;0.10;0.10;;;;;;;;;;5089543;28;20470;-71
2023/07/18 02:14:51;;;;;;;0.03;0.03;;;;;;;;;;5084137;28;20271;-71
2023/07/18 02:17:17;;;;;;;0.10;0.10;;;;;;;;;;5089491;28;20303;-72
2023/07/18 02:19:43;;;;;;;0.10;0.10;;;;;;;;;;5084265;28;20284;-72
2023/07/18 02:22:10;;;;;;;0.10;0.10;;;;;;;;;;5089444;28;20277;-72
2023/07/18 02:24:36;;;;;;;0.00;0.00;;;;;;;;;;5084243;28;20275;-71
2023/07/18 02:27:03;;;;;;;0.10;0.10;;;;;;;;;;5088739;28;20265;-71
2023/07/18 02:29:29;;;;;;;0.10;0.10;;;;;;;;;;5084547;28;20203;-71
2023/07/18 02:31:57;;;;;;;0.03;0.03;;;;;;;;;;5087803;28;20250;-71
2023/07/18 02:34:25;;;;;;;0.10;0.10;;;;;;;;;;5085434;28;20207;-71
2023/07/18 02:36:51;;;;;;;0.00;0.00;;;;;;;;;;5087065;28;20493;-71
2023/07/18 02:39:18;;;;;;;0.10;0.10;;;;;;;;;;5085981;28;20456;-71
2023/07/18 02:41:44;;;;;;;0.10;0.10;;;;;;;;;;5085880;28;20235;-71
2023/07/18 02:44:11;;;;;;;0.10;0.10;;;;;;;;;;5086033;28;20274;-72
2023/07/18 02:46:37;;;;;;;0.10;0.10;;;;;;;;;;5085143;28;20235;-71
2023/07/18 02:49:05;;;;;;;0.10;0.10;;;;;;;;;;5087301;28;20210;-71
2023/07/18 02:51:31;;;;;;;0.10;0.10;;;;;;;;;;5084273;28;20298;-71
2023/07/18 02:53:58;;;;;;;0.10;0.10;;;;;;;;;;5088187;28;20280;-71
2023/07/18 02:56:24;;;;;;;0.00;0.00;;;;;;;;;;5083810;28;20566;-71
2023/07/18 02:58:51;;;;;;;0.10;0.10;;;;;;;;;;5089435;28;20231;-71
2023/07/18 03:01:19;;;;;;;0.10;0.10;;;;;;;;;;5082354;28;20306;-72
2023/07/18 03:03:45;;;;;;;0.10;0.10;;;;;;;;;;5090016;28;20205;-72
2023/07/18 03:06:14;;;;;;;0.10;0.10;;;;;;;;;;5081697;28;20257;-71
2023/07/18 03:08:41;;;;;;;0.10;0.10;;;;;;;;;;5090591;28;20238;-72
2023/07/18 03:11:08;;;;;;;0.10;0.10;;;;;;;;;;5081103;28;20481;-71
2023/07/18 03:13:36;;;;;;;0.10;0.10;;;;;;;;;;5091314;28;20537;-71
2023/07/18 03:16:04;;;;;;;0.10;0.10;;;;;;;;;;5080200;28;20234;-72
2023/07/18 03:18:31;;;;;;;0.10;0.10;;;;;;;;;;5091668;28;20211;-72
2023/07/18 03:20:57;;;;;;;0.10;0.10;;;;;;;;;;5079648;28;20239;-72
2023/07/18 03:23:25;;;;;;;0.00;0.00;;;;;;;;;;5092451;28;20238;-72
2023/07/18 03:25:52;;;;;;;0.10;0.10;;;;;;;;;;5078835;28;20312;-73
2023/07/18 03:28:19;;;;;;;0.00;0.00;;;;;;;;;;5093098;28;20209;-72
2023/07/18 03:30:46;;;;;;;0.10;0.10;;;;;;;;;;5078135;28;20259;-72
2023/07/18 03:33:12;;;;;;;0.10;0.10;;;;;;;;;;5093962;28;20471;-72
2023/07/18 03:35:39;;;;;;;0.10;0.10;;;;;;;;;;5077122;28;20245;-71
2023/07/18 03:38:05;;;;;;;0.10;0.10;;;;;;;;;;5094618;28;20239;-71
2023/07/18 03:40:33;;;;;;;0.10;0.10;;;;;;;;;;5076110;28;20304;-72
2023/07/18 03:42:59;;;;;;;0.10;0.10;;;;;;;;;;5095484;28;20206;-71
2023/07/18 03:45:25;;;;;;;0.10;0.10;;;;;;;;;;5075179;28;20284;-72
2023/07/18 03:47:52;;;;;;;0.10;0.10;;;;;;;;;;5096373;28;20228;-71
2023/07/18 03:50:18;;;;;;;0.10;0.10;;;;;;;;;;5074226;28;20210;-72
2023/07/18 03:52:44;;;;;;;0.10;0.10;;;;;;;;;;5097356;28;20229;-72
2023/07/18 03:55:11;;;;;;;0.00;0.00;;;;;;;;;;5075050;28;20235;-72
2023/07/18 03:57:40;;;;;;;0.10;0.10;;;;;;;;;;5102143;28;20400;-71
2023/07/18 04:00:13;;;;;;;0.10;0.10;;;;;;;;;;5086676;28;20240;-72
2023/07/18 04:02:39;;;;;;;0.10;0.10;;;;;;;;;;5075301;28;20471;-72
2023/07/18 04:05:06;;;;;;;0.10;0.10;;;;;;;;;;5086616;28;20455;-72
2023/07/18 04:07:32;;;;;;;0.10;0.10;;;;;;;;;;5092012;28;20238;-72
2023/07/18 04:09:59;;;;;;;0.10;0.10;;;;;;;;;;5086513;28;20204;-72
2023/07/18 04:12:25;;;;;;;0.10;0.10;;;;;;;;;;5091811;28;20498;-72
2023/07/18 04:14:53;;;;;;;0.10;0.10;;;;;;;;;;5086697;28;20245;-72
2023/07/18 04:17:20;;;;;;;0.10;0.10;;;;;;;;;;5091705;28;20284;-72
2023/07/18 04:19:46;;;;;;;0.10;0.10;;;;;;;;;;5086606;28;20277;-72
2023/07/18 04:22:12;;;;;;;0.10;0.10;;;;;;;;;;5091755;28;20418;-72
2023/07/18 04:24:39;;;;;;;0.10;0.10;;;;;;;;;;5086544;28;20204;-72
2023/07/18 04:27:05;;;;;;;0.00;0.00;;;;;;;;;;5091266;28;20472;-72
2023/07/18 04:29:32;;;;;;;0.10;0.10;;;;;;;;;;5086589;28;20205;-72
2023/07/18 04:32:00;;;;;;;0.10;0.10;;;;;;;;;;5090222;28;20300;-72
2023/07/18 04:34:26;;;;;;;0.10;0.10;;;;;;;;;;5087164;28;20282;-72
2023/07/18 04:36:53;;;;;;;0.10;0.10;;;;;;;;;;5089482;28;20304;-72
2023/07/18 04:39:19;;;;;;;0.10;0.10;;;;;;;;;;5088031;28;20216;-72
2023/07/18 04:41:46;;;;;;;0.10;0.10;;;;;;;;;;5088323;28;20274;-72
2023/07/18 04:44:12;;;;;;;0.10;0.10;;;;;;;;;;5088537;28;20205;-72
2023/07/18 04:46:38;;;;;;;0.10;0.10;;;;;;;;;;5087303;28;20264;-72
2023/07/18 04:49:06;;;;;;;0.10;0.10;;;;;;;;;;5089361;28;20276;-72
2023/07/18 04:51:32;;;;;;;0.10;0.10;;;;;;;;;;5086389;28;20307;-72
2023/07/18 04:53:59;;;;;;;0.10;0.10;;;;;;;;;;5090183;28;20239;-72
2023/07/18 04:56:25;;;;;;;0.10;0.10;;;;;;;;;;5085267;28;20249;-72
2023/07/18 04:58:52;;;;;;;0.10;0.10;;;;;;;;;;5091242;28;20210;-72
2023/07/18 05:01:18;;;;;;;0.10;0.10;;;;;;;;;;5084504;28;20305;-72
2023/07/18 05:03:44;;;;;;;0.10;0.10;;;;;;;;;;5091846;28;20241;-72
2023/07/18 05:06:12;;;;;;;0.10;0.10;;;;;;;;;;5082954;28;20314;-72
2023/07/18 05:08:39;;;;;;;0.10;0.10;;;;;;;;;;5092623;28;20200;-72
2023/07/18 05:11:05;;;;;;;0.10;0.10;;;;;;;;;;5082460;28;20448;-72
2023/07/18 05:13:31;;;;;;;0.10;0.10;;;;;;;;;;5093688;28;20240;-72
2023/07/18 05:16:00;;;;;;;0.10;0.10;;;;;;;;;;5081638;28;20245;-72
2023/07/18 05:18:26;;;;;;;0.10;0.10;;;;;;;;;;5094189;28;20229;-73
2023/07/18 05:20:54;;;;;;;0.10;0.10;;;;;;;;;;5080811;28;20303;-72
2023/07/18 05:23:21;;;;;;;0.10;0.10;;;;;;;;;;5094692;28;20237;-71
2023/07/18 05:25:48;;;;;;;0.03;0.03;;;;;;;;;;5079958;28;20351;-70
2023/07/18 05:28:15;;;;;;;0.00;0.00;;;;;;;;;;5095349;28;20267;-72
2023/07/18 05:30:41;;;;;;;0.00;0.00;;;;;;;;;;5079249;28;20241;-72
2023/07/18 05:33:08;;;;;;;0.10;0.10;;;;;;;;;;5096060;28;20203;-72
2023/07/18 05:35:34;;;;;;;0.57;0.57;;;;;;;;;;5078037;28;20296;-72
2023/07/18 05:38:01;;;;;;;0.10;0.10;;;;;;;;;;5096718;28;20298;-72
2023/07/18 05:40:29;;;;;;;0.00;0.00;;;;;;;;;;5077056;28;20377;-72
2023/07/18 05:42:55;;;;;;;0.10;0.10;;;;;;;;;;5097881;28;20269;-72
2023/07/18 05:45:22;;;;;;;0.10;0.10;;;;;;;;;;5076370;28;20228;-72
2023/07/18 05:47:48;;;;;;;0.10;0.10;;;;;;;;;;5098701;28;20413;-72
2023/07/18 05:50:15;;;;;;;0.20;0.20;;;;;;;;;;5075242;28;20245;-72
2023/07/18 05:52:41;;;;;;;0.10;0.10;;;;;;;;;;5099206;28;20191;-72
2023/07/18 05:55:08;;;;;;;0.10;0.10;;;;;;;;;;5077733;28;20273;-72
2023/07/18 05:57:37;;;;;;;0.10;0.10;;;;;;;;;;5099689;28;20256;-72
2023/07/18 06:00:06;;;;;;;0.10;0.10;;;;;;;;;;5084392;28;20208;-72
2023/07/18 06:02:33;;;;;;;0.10;0.10;;;;;;;;;;5089822;28;20239;-71
2023/07/18 06:04:59;;;;;;;0.10;0.10;;;;;;;;;;5084348;28;20205;-72
2023/07/18 06:07:26;;;;;;;0.10;0.10;;;;;;;;;;5089680;28;20635;-72
2023/07/18 06:09:52;;;;;;;0.00;0.00;;;;;;;;;;5084480;28;20445;-73
2023/07/18 06:12:19;;;;;;;0.00;0.00;;;;;;;;;;5089628;28;20301;-72
2023/07/18 06:14:47;;;;;;;0.10;0.10;;;;;;;;;;5084371;28;20203;-72
2023/07/18 06:17:13;;;;;;;0.10;0.10;;;;;;;;;;5089353;28;20253;-72
2023/07/18 06:19:40;;;;;;;0.17;0.17;;;;;;;;;;5083388;28;20203;-72
2023/07/18 06:22:06;;;;;;;0.00;0.00;;;;;;;;;;5089249;28;20258;-72
2023/07/18 06:24:32;;;;;;;0.10;0.10;;;;;;;;;;5084049;28;20276;-72
2023/07/18 06:26:59;;;;;;;0.10;0.10;;;;;;;;;;5088227;28;20250;-72
2023/07/18 06:29:25;;;;;;;0.10;0.10;;;;;;;;;;5084843;28;20235;-72
2023/07/18 06:31:56;;;;;;;0.10;0.10;;;;;;;;;;5087206;28;20524;-72
2023/07/18 06:34:23;;;;;;;0.00;0.00;;;;;;;;;;5085542;28;20247;-72
2023/07/18 06:36:49;;;;;;;0.10;0.10;;;;;;;;;;5086742;28;20244;-72
2023/07/18 06:39:16;;;;;;;0.00;0.00;;;;;;;;;;5085893;28;20230;-72
2023/07/18 06:41:43;;;;;;;0.10;0.10;;;;;;;;;;5085894;28;20297;-72
2023/07/18 06:44:12;;;;;;;0.05;0.05;;;;;;;;;;5086963;28;20393;-72
2023/07/18 06:46:38;;;;;;;0.05;0.05;;;;;;;;;;5085352;28;20236;-72
2023/07/18 06:49:06;;;;;;;0.10;0.10;;;;;;;;;;5087533;28;20240;-72
2023/07/18 06:51:32;;;;;;;0.30;0.30;;;;;;;;;;5084483;28;20445;-70
2023/07/18 06:53:59;;;;;;;0.10;0.10;;;;;;;;;;5088080;28;20214;-71
2023/07/18 06:56:25;;;;;;;0.10;0.10;;;;;;;;;;5083374;28;20303;-70
2023/07/18 06:58:52;;;;;;;0.10;0.10;;;;;;;;;;5089145;28;20277;-71
2023/07/18 07:01:18;;;;;;;0.10;0.10;;;;;;;;;;5082410;28;20237;-71
2023/07/18 07:03:44;;;;;;;0.05;0.05;;;;;;;;;;5090081;28;20206;-71
2023/07/18 07:06:12;;;;;;;0.10;0.10;;;;;;;;;;5081632;28;20586;-71
2023/07/18 07:08:39;;;;;;;0.00;0.00;;;;;;;;;;5091041;28;20424;-72
2023/07/18 07:11:05;;;;;;;0.00;0.00;;;;;;;;;;5080686;28;20266;-70
2023/07/18 07:13:32;;;;;;;0.05;0.05;;;;;;;;;;5091364;28;20280;-71
2023/07/18 07:15:58;;;;;;;0.05;0.05;;;;;;;;;;5079914;28;20310;-70
2023/07/18 07:18:26;;;;;;;0.10;0.10;;;;;;;;;;5092563;28;20265;-71
2023/07/18 07:20:53;;;;;;;0.00;0.00;;;;;;;;;;5078995;28;20265;-71
2023/07/18 07:23:21;;;;;;;0.10;0.10;;;;;;;;;;5092955;28;20204;-71
2023/07/18 07:25:47;;;;;;;0.10;0.10;;;;;;;;;;5078258;28;20262;-71
2023/07/18 07:28:14;;;;;;;0.10;0.10;;;;;;;;;;5093617;28;20308;-70
2023/07/18 07:30:40;;;;;;;0.10;0.10;;;;;;;;;;5080095;28;20316;-71
2023/07/18 07:33:07;;;;;;;0.10;0.10;;;;;;;;;;5098934;28;20467;-70
2023/07/18 07:35:33;;;;;;;0.00;0.00;;;;;;;;;;5080446;28;20263;-71
2023/07/18 07:37:59;;;;;;;0.10;0.10;;;;;;;;;;5099321;28;20256;-71
2023/07/18 07:40:27;;;;;;;0.10;0.10;;;;;;;;;;5079172;28;20221;-71
2023/07/18 07:42:54;;;;;;;0.10;0.10;;;;;;;;;;5100159;28;20262;-71
2023/07/18 07:45:21;;;;;;;0.10;0.10;;;;;;;;;;5078402;28;20231;-71
2023/07/18 07:47:47;;;;;;;0.10;0.10;;;;;;;;;;5101153;28;20188;-71
2023/07/18 07:50:13;;;;;;;0.05;0.05;;;;;;;;;;5077166;28;20201;-71
2023/07/18 07:52:40;;;;;;;0.10;0.10;;;;;;;;;;5101792;28;20193;-71
2023/07/18 07:55:07;;;;;;;0.00;0.00;;;;;;;;;;5086733;28;20206;-70
2023/07/18 07:57:35;;;;;;;0.00;0.00;;;;;;;;;;5075279;28;20220;-71
2023/07/18 08:00:01;;;;;;;0.05;0.05;;;;;;;;;;5086572;28;20206;-70
2023/07/18 08:02:27;;;;;;;0.00;0.00;;;;;;;;;;5092295;28;20239;-71
2023/07/18 08:04:54;;;;;;;0.10;0.10;;;;;;;;;;5086752;28;20458;-71
2023/07/18 08:07:20;;;;;;;0.10;0.10;;;;;;;;;;5092203;28;20247;-71
2023/07/18 08:09:46;;;;;;;0.08;0.08;;;;;;;;;;5086451;28;20214;-72
2023/07/18 08:12:13;;;;;;;0.00;0.00;;;;;;;;;;5092118;28;20240;-71
2023/07/18 08:14:41;;;;;;;0.00;0.00;;;;;;;;;;5086454;28;20237;-72
2023/07/18 08:17:07;;;;;;;0.08;0.08;;;;;;;;;;5091854;28;20250;-72
2023/07/18 08:19:35;;;;;;;0.03;0.03;;;;;;;;;;5086266;28;20225;-73
2023/07/18 08:22:02;;;;;;;0.03;0.03;;;;;;;;;;5090856;28;20508;-72
2023/07/18 08:24:28;;;;;;;0.10;0.10;;;;;;;;;;5087207;28;20277;-73
2023/07/18 08:26:54;;;;;;;0.03;0.03;;;;;;;;;;5089887;28;20251;-72
2023/07/18 08:29:21;;;;;;;0.10;0.10;;;;;;;;;;5087641;28;20215;-72
2023/07/18 08:31:49;;;;;;;0.10;0.10;;;;;;;;;;5088763;28;20559;-72
2023/07/18 08:34:17;;;;;;;0.10;0.10;;;;;;;;;;5088790;28;20210;-72
2023/07/18 08:36:46;;;;;;;0.00;0.00;;;;;;;;;;5088412;28;20482;-73
2023/07/18 08:39:12;;;;;;;0.00;0.00;;;;;;;;;;5088663;28;20229;-73
2023/07/18 08:41:39;;;;;;;0.00;0.00;;;;;;;;;;5086475;28;20300;-73
2023/07/18 08:44:07;;;;;;;0.00;0.00;;;;;;;;;;5089491;28;20274;-72
2023/07/18 08:46:34;;;;;;;0.00;0.00;;;;;;;;;;5086682;28;20413;-73
2023/07/18 08:49:02;;;;;;;0.05;0.05;;;;;;;;;;5090047;28;20209;-73
2023/07/18 08:51:29;;;;;;;0.08;0.08;;;;;;;;;;5085948;28;20311;-72
2023/07/18 08:53:57;;;;;;;0.03;0.03;;;;;;;;;;5090648;28;20213;-71
2023/07/18 08:56:24;;;;;;;0.00;0.00;;;;;;;;;;5085261;28;20473;-72
2023/07/18 08:58:51;;;;;;;0.05;0.05;;;;;;;;;;5091142;28;20295;-73
2023/07/18 09:01:17;;;;;;;0.00;0.00;;;;;;;;;;5084156;28;20239;-73
2023/07/18 09:03:43;;;;;;;0.00;0.00;;;;;;;;;;5092304;28;20241;-73
2023/07/18 09:06:20;;;;;;;0.00;0.00;;;;;;;;;;5083267;28;20312;-73
2023/07/18 09:08:47;;;;;;;0.00;0.00;;;;;;;;;;5091927;28;20268;-73
2023/07/18 09:11:14;;;;;;;0.10;0.10;;;;;;;;;;5083551;28;20261;-73
2023/07/18 09:13:41;;;;;;;0.10;0.10;;;;;;;;;;5092188;28;20209;-73
2023/07/18 09:16:14;;;;;;;0.00;0.00;;;;;;;;;;5082625;28;20253;-73
2023/07/18 09:18:43;;;;;;;0.00;0.00;;;;;;;;;;5092406;28;20609;-73
2023/07/18 09:21:10;;;;;;;0.10;0.10;;;;;;;;;;5082807;28;20300;-74
2023/07/18 09:23:41;;;;;;;0.00;0.00;;;;;;;;;;5092587;28;20206;-72
2023/07/18 09:26:08;;;;;;;0.10;0.10;;;;;;;;;;5082508;28;20254;-72
2023/07/18 09:28:35;;;;;;;0.05;0.05;;;;;;;;;;5092968;28;20208;-73
2023/07/18 09:31:01;;;;;;;0.10;0.10;;;;;;;;;;5081388;28;20247;-72
2023/07/18 09:33:27;;;;;;;0.00;0.00;;;;;;;;;;5093602;28;20273;-73
2023/07/18 09:35:57;;;;;;;0.10;0.10;;;;;;;;;;5080519;28;20309;-72
2023/07/18 09:38:23;;;;;;;0.00;0.00;;;;;;;;;;5094158;28;20290;-72
2023/07/18 09:40:51;;;;;;;0.00;0.00;;;;;;;;;;5079816;28;20303;-73
2023/07/18 09:43:18;;;;;;;0.10;0.10;;;;;;;;;;5094945;28;20210;-72
2023/07/18 09:45:45;;;;;;;0.00;0.00;;;;;;;;;;5079403;28;20257;-72
2023/07/18 09:48:11;;;;;;;0.00;0.00;;;;;;;;;;5095248;28;20231;-73
2023/07/18 09:50:39;;;;;;;0.00;0.00;;;;;;;;;;5078256;28;20303;-73
2023/07/18 09:53:09;;;;;;;0.00;0.00;;;;;;;;;;5095995;28;20203;-73
2023/07/18 09:55:38;;;;;;;0.10;0.10;;;;;;;;;;5078111;28;20242;-74
2023/07/18 09:58:06;;;;;;;0.10;0.10;;;;;;;;;;5096142;28;20207;-72
2023/07/18 10:00:35;;;;;;;0.10;0.10;;;;;;;;;;5077133;28;20268;-72
2023/07/18 10:03:03;;;;;;;0.00;0.00;;;;;;;;;;5096437;28;20203;-69
2023/07/18 10:05:30;;;;;;;0.00;0.00;;;;;;;;;;5077056;28;20317;-72
2023/07/18 10:07:56;;;;;;;0.10;0.10;;;;;;;;;;5097121;28;20283;-72
2023/07/18 10:10:23;;;;;;;0.10;0.10;;;;;;;;;;5075867;28;20242;-72
2023/07/18 10:12:59;;;;;;;0.00;0.00;;;;;;;;;;5097902;28;20234;-72
2023/07/18 10:15:27;;;;;;;0.00;0.00;;;;;;;;;;5076031;28;20210;-73
2023/07/18 10:17:53;;;;;;;0.43;0.43;;;;;;;;;;5097436;28;20235;-71
2023/07/18 10:20:20;;;;;;;0.00;0.00;;;;;;;;;;5075614;28;20271;-73
2023/07/18 10:22:48;;;;;;;0.05;0.05;;;;;;;;;;5098268;28;20203;-73
2023/07/18 10:25:17;;;;;;;0.05;0.05;;;;;;;;;;5074789;28;20212;-73
2023/07/18 10:27:44;;;;;;;0.00;0.00;;;;;;;;;;5098562;28;20226;-71
2023/07/18 10:30:12;;;;;;;0.00;0.00;;;;;;;;;;5073834;28;20206;-72
2023/07/18 10:32:42;;;;;;;0.00;0.00;;;;;;;;;;5098935;28;20204;-73
2023/07/18 10:35:09;;;;;;;0.00;0.00;;;;;;;;;;5075672;28;20207;-74
2023/07/18 10:37:36;;;;;;;0.10;0.10;;;;;;;;;;5099288;28;20223;-76
2023/07/18 10:40:05;;;;;;;0.00;0.00;;;;;;;;;;5083957;28;20220;-73
2023/07/18 10:42:34;;;;;;;0.00;0.00;;;;;;;;;;5089275;28;20238;-73
2023/07/18 10:45:03;;;;;;;0.10;0.10;;;;;;;;;;5083684;28;20203;-75
2023/07/18 10:47:29;;;;;;;0.03;0.03;;;;;;;;;;5089248;28;20239;-71
2023/07/18 10:49:57;;;;;;;0.08;0.08;;;;;;;;;;5083600;28;20293;-75
2023/07/18 10:52:24;;;;;;;0.00;0.00;;;;;;;;;;5089020;28;20258;-76
2023/07/18 10:54:55;;;;;;;0.00;0.00;;;;;;;;;;5083650;28;20211;-75
2023/07/18 10:57:25;;;;;;;0.00;0.00;;;;;;;;;;5089239;28;20239;-75
2023/07/18 10:59:51;;;;;;;0.15;0.15;;;;;;;;;;5083664;28;20411;-75
2023/07/18 11:02:19;;;;;;;0.00;0.00;;;;;;;;;;5089028;28;20239;-73
2023/07/18 11:04:45;;;;;;;0.00;0.00;;;;;;;;;;5082978;28;20403;-72
2023/07/18 11:07:13;;;;;;;0.00;0.00;;;;;;;;;;5088868;28;20309;-73
2023/07/18 11:09:40;;;;;;;0.00;0.00;;;;;;;;;;5083753;28;20241;-73
2023/07/18 11:12:07;;;;;;;0.00;0.00;;;;;;;;;;5088757;28;20318;-71
2023/07/18 11:14:40;;;;;;;0.00;0.00;;;;;;;;;;5083727;28;20239;-70
2023/07/18 11:17:09;;;;;;;0.00;0.00;;;;;;;;;;5088550;28;20269;-70
2023/07/18 11:19:36;;;;;;;0.00;0.00;;;;;;;;;;5083561;28;20290;-70
2023/07/18 11:22:02;;;;;;;0.00;0.00;;;;;;;;;;5087062;28;20238;-71
2023/07/18 11:24:30;;;;;;;0.00;0.00;;;;;;;;;;5085161;28;20208;-70
2023/07/18 11:27:10;;;;;;;0.00;0.00;;;;;;;;;;5087342;28;20280;-70
2023/07/18 11:29:37;;;;;;;0.00;0.00;;;;;;;;;;5083541;28;20206;-70
2023/07/18 11:32:03;;;;;;;0.00;0.00;;;;;;;;;;5087947;28;20238;-70
2023/07/18 11:34:30;;;;;;;0.00;0.00;;;;;;;;;;5084079;28;20203;-70
2023/07/18 11:36:56;;;;;;;0.00;0.00;;;;;;;;;;5087053;28;20239;-70
2023/07/18 11:39:22;;;;;;;0.00;0.00;;;;;;;;;;5084857;28;20273;-71
2023/07/18 11:41:51;;;;;;;0.10;0.10;;;;;;;;;;5086068;28;20505;-70
2023/07/18 11:44:23;;;;;;;0.00;0.00;;;;;;;;;;5085531;28;20214;-70
2023/07/18 11:46:50;;;;;;;0.00;0.00;;;;;;;;;;5086226;28;20449;-70
2023/07/18 11:49:16;;;;;;;0.00;0.00;;;;;;;;;;5085628;28;20360;-70
2023/07/18 11:51:43;;;;;;;0.08;0.08;;;;;;;;;;5085090;28;20239;-70
2023/07/18 11:54:09;;;;;;;0.00;0.00;;;;;;;;;;5086096;28;20518;-69
2023/07/18 11:56:37;;;;;;;0.00;0.00;;;;;;;;;;5084304;28;20322;-71
2023/07/18 11:59:04;;;;;;;0.00;0.00;;;;;;;;;;5087186;28;20255;-72
2023/07/18 12:01:32;;;;;;;0.00;0.00;;;;;;;;;;5082782;28;20306;-70
2023/07/18 12:03:59;;;;;;;0.00;0.00;;;;;;;;;;5088452;28;20450;-72
2023/07/18 12:06:25;;;;;;;0.10;0.10;;;;;;;;;;5082744;28;20289;-72
2023/07/18 12:08:52;;;;;;;0.10;0.10;;;;;;;;;;5088501;28;20207;-72
2023/07/18 12:11:21;;;;;;;0.00;0.00;;;;;;;;;;5081792;28;20305;-72
2023/07/18 12:13:47;;;;;;;0.00;0.00;;;;;;;;;;5089149;28;20234;-71
2023/07/18 12:16:15;;;;;;;0.00;0.00;;;;;;;;;;5081435;28;20317;-72
2023/07/18 12:18:41;;;;;;;0.00;0.00;;;;;;;;;;5093364;28;20282;-72
2023/07/18 12:21:07;;;;;;;0.00;0.00;;;;;;;;;;5083685;28;20242;-72
2023/07/18 12:23:34;;;;;;;0.00;0.00;;;;;;;;;;5094380;28;20487;-71
2023/07/18 12:26:00;;;;;;;0.00;0.00;;;;;;;;;;5082970;28;20513;-72
2023/07/18 12:28:26;;;;;;;0.00;0.00;;;;;;;;;;5095158;28;20235;-72
2023/07/18 12:30:53;;;;;;;0.00;0.00;;;;;;;;;;5081856;28;20242;-72
2023/07/18 12:33:21;;;;;;;0.00;0.00;;;;;;;;;;5095794;28;20216;-72
2023/07/18 12:35:47;;;;;;;0.00;0.00;;;;;;;;;;5080784;28;20313;-72
2023/07/18 12:38:14;;;;;;;0.00;0.00;;;;;;;;;;5096812;28;20275;-71
2023/07/18 12:40:40;;;;;;;0.10;0.10;;;;;;;;;;5079481;28;20238;-71
2023/07/18 12:43:07;;;;;;;0.00;0.00;;;;;;;;;;5097666;28;20514;-72
2023/07/18 12:45:33;;;;;;;0.00;0.00;;;;;;;;;;5078515;28;20243;-72
2023/07/18 12:48:00;;;;;;;0.00;0.00;;;;;;;;;;5098059;28;20199;-71
2023/07/18 12:50:29;;;;;;;0.10;0.10;;;;;;;;;;5077909;28;20223;-71
2023/07/18 12:52:57;;;;;;;0.00;0.00;;;;;;;;;;5099028;28;20198;-71
2023/07/18 12:55:24;;;;;;;0.00;0.00;;;;;;;;;;5077391;28;20203;-71
2023/07/18 12:57:50;;;;;;;0.90;0.90;;;;;;;;;;5099474;28;20191;-72
2023/07/18 13:00:17;;;;;;;0.08;0.08;;;;;;;;;;5076367;28;20555;-72
2023/07/18 13:02:46;;;;;;;0.00;0.00;;;;;;;;;;5100010;28;20219;-71
2023/07/18 13:05:13;;;;;;;0.00;0.00;;;;;;;;;;5076039;28;20363;-72
2023/07/18 13:07:41;;;;;;;0.10;0.10;;;;;;;;;;5100753;28;20355;-71
2023/07/18 13:10:07;;;;;;;0.00;0.00;;;;;;;;;;5085254;28;20233;-71
2023/07/18 13:12:33;;;;;;;0.10;0.10;;;;;;;;;;5073903;28;20465;-71
2023/07/18 13:15:00;;;;;;;0.08;0.08;;;;;;;;;;5085134;28;20270;-72
2023/07/18 13:17:26;;;;;;;0.00;0.00;;;;;;;;;;5090794;28;20239;-71
2023/07/18 13:19:54;;;;;;;0.00;0.00;;;;;;;;;;5085171;28;20273;-71
2023/07/18 13:22:20;;;;;;;0.00;0.00;;;;;;;;;;5090491;28;20242;-71
2023/07/18 13:24:48;;;;;;;0.00;0.00;;;;;;;;;;5085386;28;20449;-71
2023/07/18 13:27:14;;;;;;;0.00;0.00;;;;;;;;;;5090014;28;20297;-71
2023/07/18 13:29:41;;;;;;;0.00;0.00;;;;;;;;;;5084962;28;20205;-71
2023/07/18 13:32:08;;;;;;;0.00;0.00;;;;;;;;;;5090162;28;20250;-71
2023/07/18 13:34:35;;;;;;;0.00;0.00;;;;;;;;;;5084948;28;20270;-71
2023/07/18 13:37:02;;;;;;;0.00;0.00;;;;;;;;;;5089352;28;20591;-71
2023/07/18 13:39:29;;;;;;;0.00;0.00;;;;;;;;;;5085518;28;20485;-71
2023/07/18 13:41:57;;;;;;;0.00;0.00;;;;;;;;;;5088630;27;20238;-71
2023/07/18 13:44:23;;;;;;;0.00;0.00;;;;;;;;;;5086578;28;20463;-71
2023/07/18 13:46:50;;;;;;;0.00;0.00;;;;;;;;;;5087711;28;20250;-71
2023/07/18 13:49:16;;;;;;;0.00;0.00;;;;;;;;;;5086920;28;20210;-70
2023/07/18 13:51:45;;;;;;;0.00;0.00;;;;;;;;;;5086545;28;20297;-71
2023/07/18 13:54:12;;;;;;;0.15;0.15;;;;;;;;;;5087388;28;20216;-71
2023/07/18 13:56:38;;;;;;;0.00;0.00;;;;;;;;;;5085958;28;20266;-71
2023/07/18 13:59:08;;;;;;;0.00;0.00;;;;;;;;;;5088119;28;20271;-71
2023/07/18 14:01:36;;;;;;;0.00;0.00;;;;;;;;;;5085434;28;20238;-71
2023/07/18 14:04:03;;;;;;;0.00;0.00;;;;;;;;;;5088258;28;20203;-71
2023/07/18 14:06:30;;;;;;;0.00;0.00;;;;;;;;;;5084817;28;20258;-72
2023/07/18 14:08:57;;;;;;;0.00;0.00;;;;;;;;;;5089392;28;20391;-71
2023/07/18 14:11:23;;;;;;;0.00;0.00;;;;;;;;;;5083864;28;20238;-74
2023/07/18 14:13:49;;;;;;;0.00;0.00;;;;;;;;;;5089903;28;20209;-70
2023/07/18 14:16:19;;;;;;;0.10;0.10;;;;;;;;;;5082804;28;20234;-71
2023/07/18 14:18:46;;;;;;;0.00;0.00;;;;;;;;;;5090677;28;20294;-70
2023/07/18 14:21:12;;;;;;;0.00;0.00;;;;;;;;;;5082048;28;20261;-71
2023/07/18 14:23:38;;;;;;;0.00;0.00;;;;;;;;;;5091149;28;20242;-71
2023/07/18 14:26:05;;;;;;;0.00;0.00;;;;;;;;;;5081319;28;20371;-71
2023/07/18 14:28:31;;;;;;;0.00;0.00;;;;;;;;;;5092229;28;20235;-70
2023/07/18 14:30:58;;;;;;;0.00;0.00;;;;;;;;;;5080057;28;20254;-70
2023/07/18 14:33:25;;;;;;;0.30;0.30;;;;;;;;;;5093107;28;20399;-71
2023/07/18 14:35:52;;;;;;;0.00;0.00;;;;;;;;;;5079163;28;20315;-71
2023/07/18 14:38:18;;;;;;;0.00;0.00;;;;;;;;;;5093395;28;20276;-71
2023/07/18 14:40:47;;;;;;;0.00;0.00;;;;;;;;;;5077354;28;20258;-70